Date,TemperatureHighF,TemperatureAvgF,TemperatureLowF,DewpointHighF,DewpointAvgF,DewpointLowF,HumidityHigh,HumidityAvg,HumidityLow,PressureMaxIn,PressureMinIn,WindSpeedMaxMPH,WindSpeedAvgMPH,GustSpeedMaxMPH,PrecipitationSumIn
2013-8-1,97.0,97.0,97.0,73.0,73.0,73.0,46,46,46,0.00,40.00,0,-999,0,0.00
2013-8-12,90.0,88.0,87.0,76.0,75.7,75.0,69,66,61,0.00,40.00,0,-999,0,0.00
2013-8-13,98.0,88.2,85.0,77.0,76.0,74.0,76,68,46,0.00,40.00,0,-999,0,0.00
2013-8-14,99.0,87.0,83.0,77.0,75.0,71.0,77,68,41,0.00,40.00,0,-999,0,0.00
2013-8-15,96.0,87.5,80.0,77.0,75.3,74.0,81,66,53,0.00,40.00,0,-999,0,0.00
2013-8-16,99.0,90.6,87.0,77.0,76.3,75.0,72,63,46,0.00,40.00,0,-999,0,0.00
2013-8-17,94.0,85.1,78.0,75.0,72.8,71.0,82,67,49,0.00,40.00,0,-999,0,0.00
2013-8-18,95.0,85.2,78.0,74.0,71.5,66.0,85,65,44,0.00,40.00,0,-999,0,0.00
2013-8-19,95.0,85.3,77.0,74.0,72.4,69.0,79,66,47,0.00,40.00,0,-999,0,0.00
2013-8-20,87.0,84.0,81.0,75.0,74.2,74.0,79,72,67,0.00,40.00,0,-999,0,0.00
2013-8-21,95.0,89.8,85.0,78.0,76.6,75.0,72,64,56,0.00,40.00,0,-999,0,0.00
2013-8-22,96.0,87.9,80.0,77.0,76.2,75.0,85,68,51,0.00,40.00,0,-999,0,0.00
2013-8-23,95.0,88.9,83.0,77.0,75.9,75.0,77,65,53,0.00,40.00,0,-999,0,0.00
2013-8-24,95.0,87.9,83.0,77.0,76.2,75.0,78,68,53,0.00,40.00,0,-999,0,0.00
2013-8-25,95.0,87.8,80.0,77.0,75.5,74.0,82,66,52,0.00,40.00,0,-999,0,0.00
2013-8-26,89.0,82.9,80.0,76.0,75.2,74.0,84,77,65,0.00,40.00,0,-999,0,0.00
2013-8-27,91.0,85.9,80.0,78.0,76.5,75.0,84,72,63,0.00,40.00,0,-999,0,0.00
2013-8-28,96.0,92.1,88.0,77.0,76.2,76.0,66,59,53,0.00,40.00,0,-999,0,0.00
2013-8-29,97.0,88.7,80.0,77.0,75.1,72.0,85,65,45,0.00,40.00,0,-999,0,0.00
2013-8-30,96.0,87.2,80.0,75.0,73.8,73.0,79,64,48,0.00,40.00,0,-999,0,0.00
2013-8-31,92.0,87.4,82.0,75.0,73.6,73.0,71,63,53,0.00,40.00,0,-999,0,0.00